Time;durP1;ratioP1;P1;durP2;ratioP2;P2;SDS_P1;SDS_P2;PMS_P1;PMS_P2;Temp;Humidity;BMP_temperature;BMP_pressure;BME280_temperature;BME280_humidity;BME280_pressure;Samples;Min_cycle;Max_cycle;Signal;HPM_P1;HPM_P2
2022/09/08 00:01:48;;;;;;;27.33;24.48;;;27.20;62.70;;;;;;5024208;28;20021;-79
2022/09/08 00:04:14;;;;;;;26.33;23.58;;;27.30;62.80;;;;;;5054944;28;20091;-83
2022/09/08 00:06:40;;;;;;;27.92;24.98;;;27.40;62.60;;;;;;5037533;28;20503;-81
2022/09/08 00:09:06;;;;;;;27.27;24.45;;;27.40;62.50;;;;;;5022350;28;20033;-80
2022/09/08 00:11:34;;;;;;;29.30;26.10;;;27.40;62.60;;;;;;5035728;28;20112;-79
2022/09/08 00:14:04;;;;;;;28.17;25.38;;;27.30;62.70;;;;;;5035412;28;20030;-79
2022/09/08 00:16:30;;;;;;;27.83;25.10;;;27.30;62.70;;;;;;5054573;28;20020;-78
2022/09/08 00:18:56;;;;;;;26.52;23.83;;;27.30;62.90;;;;;;5036266;28;20033;-82
2022/09/08 00:21:26;;;;;;;30.65;27.55;;;27.20;62.90;;;;;;5054369;28;20037;-77
2022/09/08 00:23:52;;;;;;;28.83;25.88;;;27.20;63.00;;;;;;5041534;28;20508;-80
2022/09/08 00:26:20;;;;;;;28.20;25.17;;;27.20;62.90;;;;;;5028638;28;20061;-79
2022/09/08 00:28:47;;;;;;;24.55;21.88;;;27.30;62.70;;;;;;5029333;28;20029;-79
2022/09/08 00:31:13;;;;;;;26.15;23.45;;;27.30;63.20;;;;;;5045661;28;20553;-79
2022/09/08 00:33:38;;;;;;;28.45;24.33;;;27.10;63.50;;;;;;5029372;28;20029;-83
2022/09/08 00:36:04;;;;;;;27.10;24.30;;;27.10;63.30;;;;;;5035226;28;20084;-83
2022/09/08 00:38:33;;;;;;;27.55;24.45;;;27.20;63.10;;;;;;5018458;28;20045;-79
2022/09/08 00:40:59;;;;;;;31.05;27.42;;;27.30;62.60;;;;;;5036316;28;20053;-81
2022/09/08 00:43:39;;;;;;;28.08;25.15;;;27.40;62.60;;;;;;5022031;28;20483;-81
2022/09/08 00:46:14;;;;;;;28.27;22.95;;;27.40;62.60;;;;;;5017337;28;20041;-82
2022/09/08 00:48:48;;;;;;;26.80;23.92;;;27.40;62.50;;;;;;5036817;28;20033;-79
2022/09/08 00:51:16;;;;;;;27.08;24.23;;;27.20;63.10;;;;;;5054194;28;20087;-81
2022/09/08 00:53:45;;;;;;;26.25;23.63;;;27.30;62.60;;;;;;5054184;28;20040;-79
2022/09/08 00:56:11;;;;;;;27.40;23.98;;;27.30;62.80;;;;;;5046124;28;20377;-79
2022/09/08 00:58:39;;;;;;;29.83;26.83;;;27.30;62.70;;;;;;5028308;28;20033;-78
2022/09/08 01:01:06;;;;;;;27.02;24.15;;;27.40;62.10;;;;;;5034679;28;20029;-79
2022/09/08 01:03:32;;;;;;;27.55;24.80;;;27.30;62.20;;;;;;5038575;28;20106;-79
2022/09/08 01:12:43;;;;;;;29.08;25.77;;;27.30;61.80;;;;;;5054325;28;20045;-79
2022/09/08 01:14:57;;;;;;;25.83;23.10;;;27.20;62.00;;;;;;4973771;28;20081;-80
2022/09/08 01:17:24;;;;;;;31.05;27.75;;;27.10;61.90;;;;;;4973586;28;20061;-82
2022/09/08 01:19:52;;;;;;;29.83;26.45;;;27.10;61.90;;;;;;4956597;28;20146;-79
2022/09/08 01:22:56;;;;;;;31.95;25.65;;;27.10;61.80;;;;;;4953803;29;20027;-78
2022/09/08 01:25:56;;;;;;;34.58;30.13;;;27.10;61.90;;;;;;4953925;29;20035;-83
2022/09/08 01:28:29;;;;;;;27.92;24.92;;;27.00;61.80;;;;;;4971019;28;20159;-78
2022/09/08 01:30:55;;;;;;;29.13;26.13;;;27.00;61.90;;;;;;4973277;28;20031;-78
2022/09/08 01:33:22;;;;;;;31.25;27.40;;;26.90;61.90;;;;;;4957107;28;20038;-78
2022/09/08 01:35:47;;;;;;;30.38;27.27;;;26.90;62.00;;;;;;4972848;28;20521;-78
2022/09/08 01:38:13;;;;;;;29.50;26.00;;;26.90;61.80;;;;;;4972423;28;20049;-79
2022/09/08 01:40:39;;;;;;;29.20;26.20;;;26.80;61.80;;;;;;4955778;28;20518;-79
2022/09/08 01:43:08;;;;;;;27.05;23.52;;;26.80;62.00;;;;;;4956452;28;20062;-79
2022/09/08 01:45:38;;;;;;;28.08;25.08;;;26.60;63.10;;;;;;4977460;28;20052;-80
2022/09/08 01:48:05;;;;;;;30.80;26.42;;;26.50;62.80;;;;;;5015918;28;20120;-79
2022/09/08 01:50:31;;;;;;;28.13;25.13;;;26.60;62.50;;;;;;5016019;28;20473;-78
2022/09/08 01:52:56;;;;;;;28.70;25.65;;;26.70;62.30;;;;;;5015570;28;20525;-79
2022/09/08 01:55:22;;;;;;;26.60;23.85;;;26.50;63.20;;;;;;5015396;28;20552;-79
2022/09/08 01:57:48;;;;;;;28.08;25.05;;;26.40;62.70;;;;;;5033333;28;20484;-77
2022/09/08 02:00:13;;;;;;;31.30;27.40;;;26.10;64.40;;;;;;5050319;28;20112;-78
2022/09/08 02:02:39;;;;;;;29.05;24.50;;;25.90;65.10;;;;;;5050429;28;20044;-79
2022/09/08 02:05:06;;;;;;;28.35;24.95;;;25.60;65.90;;;;;;5052631;28;20391;-80
2022/09/08 02:07:32;;;;;;;28.70;25.77;;;25.50;66.70;;;;;;5034449;28;20430;-79
2022/09/08 02:09:58;;;;;;;26.15;23.52;;;25.30;66.50;;;;;;5053528;28;20051;-82
2022/09/08 02:12:24;;;;;;;27.80;24.20;;;25.70;65.30;;;;;;5053023;28;20021;-83
2022/09/08 02:14:51;;;;;;;23.95;21.45;;;26.00;64.10;;;;;;5052095;28;20420;-84
2022/09/08 02:17:16;;;;;;;27.50;24.23;;;26.00;64.80;;;;;;5035265;28;20031;-79
2022/09/08 02:19:42;;;;;;;24.35;21.65;;;25.90;64.70;;;;;;5053496;28;20025;-81
2022/09/08 02:22:08;;;;;;;27.08;23.90;;;26.10;64.00;;;;;;5045174;28;20049;-79
2022/09/08 02:24:33;;;;;;;29.65;26.67;;;26.00;64.60;;;;;;5019152;28;20031;-78
2022/09/08 02:26:59;;;;;;;31.92;28.48;;;26.10;63.30;;;;;;5016220;28;20087;-79
2022/09/08 02:29:26;;;;;;;28.55;25.27;;;26.30;62.60;;;;;;5015277;28;20025;-78
2022/09/08 02:31:51;;;;;;;28.75;25.83;;;26.50;62.60;;;;;;5015677;28;20032;-79
2022/09/08 02:34:17;;;;;;;26.02;23.33;;;26.50;62.40;;;;;;5020117;28;20021;-79
2022/09/08 02:36:43;;;;;;;24.90;22.30;;;26.30;63.10;;;;;;5034064;28;20047;-78
2022/09/08 02:39:15;;;;;;;27.73;24.85;;;26.10;63.90;;;;;;5035615;28;20396;-79
2022/09/08 02:41:42;;;;;;;27.85;25.05;;;26.10;63.50;;;;;;5030098;28;20029;-81
2022/09/08 02:44:11;;;;;;;30.85;25.05;;;26.30;62.90;;;;;;5023401;28;20027;-80
2022/09/08 02:46:38;;;;;;;27.92;25.02;;;26.40;62.40;;;;;;5033883;28;20041;-82
2022/09/08 02:49:04;;;;;;;29.17;26.08;;;26.50;62.10;;;;;;5053099;28;20112;-84
2022/09/08 02:51:32;;;;;;;30.23;25.58;;;26.50;62.00;;;;;;5052253;28;20060;-78
2022/09/08 02:53:57;;;;;;;27.67;24.80;;;26.50;62.00;;;;;;5034795;28;20116;-81
2022/09/08 02:56:24;;;;;;;27.10;24.20;;;26.40;62.90;;;;;;5034427;28;20017;-82
2022/09/08 02:58:50;;;;;;;28.50;25.10;;;26.40;62.80;;;;;;5052480;28;20379;-78
2022/09/08 03:01:16;;;;;;;28.13;25.00;;;26.50;62.50;;;;;;5042255;28;20116;-78
2022/09/08 03:03:41;;;;;;;28.23;24.38;;;26.50;62.00;;;;;;5028592;28;20021;-82
2022/09/08 03:06:07;;;;;;;27.52;24.60;;;26.60;61.80;;;;;;5051494;28;20037;-84
2022/09/08 03:08:34;;;;;;;25.90;23.30;;;26.60;61.70;;;;;;5034681;28;20104;-78
2022/09/08 03:11:01;;;;;;;24.13;21.60;;;26.30;62.90;;;;;;5035185;28;20025;-78
2022/09/08 03:13:28;;;;;;;24.80;22.10;;;25.90;64.10;;;;;;5023371;28;20392;-80
2022/09/08 03:15:54;;;;;;;27.05;24.10;;;25.50;65.30;;;;;;5046747;28;20439;-78
2022/09/08 03:18:20;;;;;;;24.90;22.30;;;25.60;64.20;;;;;;5025729;28;20021;-79
2022/09/08 03:20:46;;;;;;;26.58;23.77;;;25.80;63.30;;;;;;5050137;28;20036;-78
2022/09/08 03:23:19;;;;;;;28.25;25.23;;;25.90;63.70;;;;;;5028600;28;20131;-83
2022/09/08 03:25:46;;;;;;;25.77;23.13;;;26.00;62.70;;;;;;5052182;28;20060;-78
2022/09/08 03:28:20;;;;;;;27.15;24.35;;;26.20;62.60;;;;;;5050652;28;20383;-78
2022/09/08 03:30:46;;;;;;;29.67;25.67;;;26.20;62.20;;;;;;5034444;28;20037;-78
2022/09/08 03:33:11;;;;;;;27.77;24.35;;;26.20;61.80;;;;;;5024804;28;20032;-80
2022/09/08 03:35:37;;;;;;;28.02;25.08;;;26.20;61.80;;;;;;5052289;28;20392;-78
2022/09/08 03:38:03;;;;;;;27.90;25.00;;;26.20;62.00;;;;;;5036123;28;20037;-79
2022/09/08 03:40:29;;;;;;;27.88;24.85;;;26.10;62.00;;;;;;5045702;28;20379;-84
2022/09/08 03:42:54;;;;;;;30.85;27.17;;;26.00;61.90;;;;;;5029946;28;20044;-78
2022/09/08 03:45:20;;;;;;;28.45;25.42;;;26.00;62.20;;;;;;5051415;28;20025;-82
2022/09/08 03:47:47;;;;;;;28.20;24.02;;;25.90;62.20;;;;;;5024510;28;20500;-79
2022/09/08 03:50:15;;;;;;;29.80;26.67;;;26.00;62.20;;;;;;5015060;28;20064;-84
2022/09/08 03:52:41;;;;;;;28.27;25.17;;;26.00;62.10;;;;;;5038080;28;20391;-79
2022/09/08 03:55:08;;;;;;;27.08;24.27;;;26.00;62.00;;;;;;5052953;28;20042;-84
2022/09/08 03:57:34;;;;;;;26.92;24.15;;;26.00;62.00;;;;;;5035763;28;20032;-78
2022/09/08 04:00:01;;;;;;;27.42;23.63;;;25.90;62.60;;;;;;5032777;28;20032;-80
2022/09/08 04:02:29;;;;;;;29.63;26.55;;;26.10;62.40;;;;;;5054286;28;20028;-84
2022/09/08 04:04:57;;;;;;;27.73;24.83;;;26.10;62.10;;;;;;5035846;28;20014;-85
2022/09/08 04:07:25;;;;;;;26.90;24.10;;;26.10;62.00;;;;;;5044973;28;20029;-78
2022/09/08 04:09:51;;;;;;;29.88;22.98;;;26.20;61.90;;;;;;5055913;28;20029;-81
2022/09/08 04:12:17;;;;;;;26.88;24.00;;;26.20;61.80;;;;;;5027906;28;20042;-81
2022/09/08 04:14:45;;;;;;;29.48;26.38;;;26.20;61.70;;;;;;5049349;28;20162;-83
2022/09/08 04:17:11;;;;;;;28.35;25.00;;;26.20;61.60;;;;;;5037394;28;20051;-81
2022/09/08 04:19:37;;;;;;;28.10;24.65;;;26.20;61.60;;;;;;5023947;28;20026;-84
2022/09/08 04:22:02;;;;;;;30.92;25.85;;;26.20;61.60;;;;;;5035817;28;20048;-81
2022/09/08 04:24:28;;;;;;;29.55;24.15;;;26.20;61.60;;;;;;5029187;28;20033;-85
2022/09/08 04:26:54;;;;;;;29.02;25.85;;;26.10;61.70;;;;;;5039063;28;20033;-83
2022/09/08 04:29:20;;;;;;;29.70;26.42;;;26.00;61.60;;;;;;5028955;28;20024;-85
2022/09/08 04:31:47;;;;;;;30.90;25.08;;;26.00;61.60;;;;;;5055809;28;20057;-86
2022/09/08 04:34:14;;;;;;;28.30;24.67;;;25.90;62.00;;;;;;5021278;28;20024;-83
2022/09/08 04:36:41;;;;;;;31.02;26.00;;;25.90;62.10;;;;;;5048778;28;20028;-85
2022/09/08 04:39:06;;;;;;;33.80;27.98;;;25.90;62.30;;;;;;5054842;28;20100;-80
2022/09/08 04:41:32;;;;;;;27.50;23.27;;;25.80;62.40;;;;;;5034947;28;20043;-80
2022/09/08 04:44:03;;;;;;;26.63;23.63;;;25.80;62.50;;;;;;5055000;28;20047;-79
2022/09/08 04:46:30;;;;;;;26.63;23.77;;;25.90;62.80;;;;;;5033430;28;20120;-79
2022/09/08 04:48:56;;;;;;;29.63;26.40;;;26.00;62.60;;;;;;5022803;28;20025;-78
2022/09/08 04:51:23;;;;;;;29.20;25.20;;;26.10;62.40;;;;;;5036578;28;20038;-78
2022/09/08 04:53:52;;;;;;;26.23;23.35;;;26.20;62.50;;;;;;5053817;28;20124;-79
2022/09/08 04:56:19;;;;;;;27.70;24.67;;;26.20;62.60;;;;;;5054968;28;20025;-84
2022/09/08 04:58:46;;;;;;;26.52;23.58;;;26.30;62.50;;;;;;5036885;28;20021;-80
2022/09/08 05:01:19;;;;;;;26.42;23.48;;;26.30;62.60;;;;;;5054663;28;20116;-81
2022/09/08 05:03:46;;;;;;;28.25;25.30;;;26.40;62.70;;;;;;5034729;28;20017;-78
2022/09/08 05:06:15;;;;;;;24.23;21.70;;;26.50;62.70;;;;;;5031759;28;20049;-79
2022/09/08 05:08:46;;;;;;;23.92;21.40;;;26.60;62.70;;;;;;5028036;28;20033;-77
2022/09/08 05:11:12;;;;;;;26.60;23.77;;;26.60;62.70;;;;;;5053999;28;20037;-78
2022/09/08 05:13:39;;;;;;;24.13;21.73;;;26.70;62.90;;;;;;5031807;28;20026;-79
2022/09/08 05:16:07;;;;;;;20.88;18.77;;;26.80;62.80;;;;;;5038573;28;20021;-78
2022/09/08 05:18:33;;;;;;;20.58;18.48;;;27.00;62.20;;;;;;5045359;28;20025;-80
2022/09/08 05:20:59;;;;;;;21.33;18.77;;;26.50;63.00;;;;;;5053827;28;20036;-80
2022/09/08 05:23:25;;;;;;;19.30;17.40;;;26.00;64.30;;;;;;5044340;28;20060;-84
2022/09/08 05:26:01;;;;;;;21.33;17.85;;;25.80;65.00;;;;;;5035785;28;20041;-84
2022/09/08 05:28:32;;;;;;;20.20;17.85;;;25.70;65.40;;;;;;5054112;28;20049;-78
2022/09/08 05:31:00;;;;;;;21.40;18.92;;;25.90;65.80;;;;;;5054038;28;20464;-83
2022/09/08 05:33:25;;;;;;;19.35;17.45;;;26.20;65.00;;;;;;5038381;28;20112;-80
2022/09/08 05:35:52;;;;;;;20.23;17.58;;;26.70;63.80;;;;;;5052611;28;20029;-79
2022/09/08 05:38:19;;;;;;;21.60;17.92;;;27.10;63.10;;;;;;5034724;28;20079;-81
2022/09/08 05:40:45;;;;;;;21.15;18.63;;;27.40;62.10;;;;;;5047458;28;20519;-81
2022/09/08 05:43:11;;;;;;;20.92;18.70;;;27.60;61.80;;;;;;5049010;28;20024;-77
2022/09/08 05:45:37;;;;;;;20.65;18.23;;;27.80;61.30;;;;;;5053355;28;20511;-81
2022/09/08 05:48:03;;;;;;;22.75;18.35;;;27.80;61.60;;;;;;5046662;28;20063;-78
2022/09/08 05:50:34;;;;;;;21.70;18.48;;;27.80;61.70;;;;;;5050840;28;20056;-83
2022/09/08 05:53:01;;;;;;;22.08;19.77;;;27.90;61.50;;;;;;5023836;28;20037;-78
2022/09/08 05:55:28;;;;;;;24.83;21.38;;;28.00;61.30;;;;;;5052870;28;20017;-79
2022/09/08 05:57:54;;;;;;;21.25;19.10;;;28.10;61.10;;;;;;5053335;28;20027;-83
2022/09/08 06:00:21;;;;;;;24.38;21.77;;;28.10;61.00;;;;;;5053374;28;20059;-82
2022/09/08 06:02:51;;;;;;;22.88;20.52;;;28.10;61.20;;;;;;5035270;28;20028;-80
2022/09/08 06:05:20;;;;;;;;;;;28.10;61.20;;;;;;5034977;28;20040;-81
2022/09/08 06:07:48;;;;;;;25.98;21.15;;;28.00;61.20;;;;;;5067150;28;19911;-80
2022/09/08 06:10:14;;;;;;;24.17;21.58;;;28.10;61.30;;;;;;5026088;28;20033;-84
2022/09/08 06:12:40;;;;;;;24.58;21.98;;;28.20;61.50;;;;;;5053602;28;20433;-83
2022/09/08 06:15:07;;;;;;;23.75;21.35;;;28.20;60.90;;;;;;5052970;28;20021;-78
2022/09/08 06:17:33;;;;;;;24.38;21.83;;;28.00;61.60;;;;;;5024219;28;20025;-81
2022/09/08 06:19:58;;;;;;;23.27;20.67;;;27.90;62.30;;;;;;5041187;28;20096;-78
2022/09/08 06:22:25;;;;;;;24.17;20.40;;;27.90;61.80;;;;;;5035811;28;20021;-82
2022/09/08 06:24:51;;;;;;;23.05;19.98;;;28.00;61.70;;;;;;5026587;28;20473;-84
2022/09/08 06:27:22;;;;;;;21.35;18.50;;;28.00;60.80;;;;;;5030198;28;20034;-79
2022/09/08 06:30:01;;;;;;;22.85;18.75;;;27.50;60.30;;;;;;5044535;28;20021;-78
2022/09/08 06:32:43;;;;;;;22.33;20.02;;;27.00;61.70;;;;;;5052390;28;20107;-80
2022/09/08 06:35:17;;;;;;;41.47;19.17;;;26.90;62.00;;;;;;5052118;28;20424;-79
2022/09/08 06:37:59;;;;;;;24.33;19.17;;;27.00;62.40;;;;;;5029725;28;20021;-80
2022/09/08 06:40:47;;;;;;;20.77;18.60;;;27.00;61.70;;;;;;5049425;28;20098;-79
2022/09/08 06:43:17;;;;;;;20.50;18.27;;;26.70;62.10;;;;;;5034853;28;20475;-83
2022/09/08 06:45:47;;;;;;;22.80;18.60;;;26.30;63.80;;;;;;5023390;28;20033;-79
2022/09/08 06:48:22;;;;;;;20.92;18.67;;;26.40;63.10;;;;;;5051062;28;20032;-81
2022/09/08 06:51:07;;;;;;;22.27;19.48;;;26.00;64.00;;;;;;5052137;28;20021;-84
2022/09/08 06:53:38;;;;;;;23.27;18.52;;;25.90;63.90;;;;;;4696223;28;9999833;-79
2022/09/08 06:56:24;;;;;;;21.30;19.20;;;25.90;64.10;;;;;;5022828;28;20075;-77
2022/09/08 06:59:00;;;;;;;19.77;17.77;;;26.40;64.10;;;;;;5043286;28;20090;-83
2022/09/08 07:01:45;;;;;;;21.60;19.25;;;26.60;62.70;;;;;;5026877;28;20392;-80
2022/09/08 07:04:35;;;;;;;19.65;17.60;;;27.10;63.00;;;;;;5031522;28;20024;-85
2022/09/08 07:07:26;;;;;;;18.75;16.75;;;26.50;62.90;;;;;;5035253;28;20048;-78
2022/09/08 07:10:04;;;;;;;17.88;15.98;;;25.90;64.30;;;;;;5042553;28;20107;-80
2022/09/08 07:12:45;;;;;;;20.40;16.73;;;26.00;64.30;;;;;;5021344;28;20120;-80
2022/09/08 07:15:35;;;;;;;20.48;17.63;;;25.90;64.00;;;;;;5012821;28;20376;-83
2022/09/08 07:18:46;;;;;;;21.10;17.02;;;26.00;65.00;;;;;;5039323;28;20032;-79
2022/09/08 07:21:25;;;;;;;;;;;25.70;65.10;;;;;;4969475;28;20532;-85
2022/09/08 07:23:53;;;;;;;21.50;16.45;;;25.30;65.90;;;;;;4968637;28;20356;-82
2022/09/08 07:26:45;;;;;;;18.92;16.17;;;25.40;65.30;;;;;;4952490;28;20086;-80
2022/09/08 07:29:21;;;;;;;24.58;16.08;;;25.50;65.70;;;;;;4955722;28;20035;-79
2022/09/08 07:31:50;;;;;;;21.35;16.17;;;26.30;65.00;;;;;;4955601;28;20042;-80
2022/09/08 07:34:28;;;;;;;20.42;15.32;;;26.60;63.90;;;;;;4971835;28;20074;-78
2022/09/08 07:37:23;;;;;;;19.02;15.48;;;27.10;62.40;;;;;;4956421;28;20062;-78
2022/09/08 07:40:03;;;;;;;20.55;14.77;;;26.60;63.30;;;;;;4967382;28;20473;-79
2022/09/08 07:42:30;;;;;;;17.25;15.43;;;27.20;63.20;;;;;;4941708;28;20034;-84
2022/09/08 07:45:01;;;;;;;18.60;13.77;;;27.90;62.20;;;;;;4954984;28;20031;-82
2022/09/08 07:47:38;;;;;;;15.30;13.43;;;28.00;61.00;;;;;;4955563;28;20122;-78
2022/09/08 07:50:22;;;;;;;15.80;14.05;;;27.50;61.80;;;;;;4954834;28;20023;-78
2022/09/08 07:52:53;;;;;;;18.25;14.50;;;27.50;62.20;;;;;;4970575;28;20560;-81
2022/09/08 07:55:41;;;;;;;16.63;14.70;;;27.70;61.90;;;;;;4956222;28;20077;-79
2022/09/08 07:58:35;;;;;;;15.82;14.10;;;27.80;61.40;;;;;;4978930;28;20067;-83
2022/09/08 08:01:16;;;;;;;15.40;13.60;;;28.10;61.50;;;;;;4665618;28;10000926;-80
2022/09/08 08:03:54;;;;;;;15.88;14.27;;;28.20;61.40;;;;;;5034136;28;20060;-80
2022/09/08 08:06:49;;;;;;;14.55;13.05;;;28.70;61.50;;;;;;5015297;28;20041;-83
2022/09/08 08:09:30;;;;;;;15.27;13.65;;;28.80;60.10;;;;;;5015230;28;20473;-79
2022/09/08 08:12:10;;;;;;;19.35;14.23;;;28.10;61.10;;;;;;5030432;28;20030;-85
2022/09/08 08:15:11;;;;;;;15.63;13.13;;;28.10;61.30;;;;;;5035580;28;20392;-78
2022/09/08 08:17:49;;;;;;;15.57;13.88;;;28.50;61.00;;;;;;4975205;28;20038;-80
2022/09/08 08:21:02;;;;;;;17.45;14.32;;;28.90;61.40;;;;;;4959167;28;20039;-90
2022/09/08 08:23:41;;;;;;;17.17;13.60;;;29.60;60.20;;;;;;4917893;29;20087;-82
2022/09/08 08:26:19;;;;;;;14.70;12.98;;;30.20;59.10;;;;;;4917263;29;20059;-82
2022/09/08 08:28:45;;;;;;;16.35;13.02;;;30.20;58.70;;;;;;4917140;29;20028;-82
2022/09/08 08:31:55;;;;;;;15.43;12.85;;;29.80;59.40;;;;;;4901391;29;20226;-81
2022/09/08 08:34:27;;;;;;;16.63;12.67;;;29.60;59.50;;;;;;4879535;29;20045;-80
2022/09/08 08:37:00;;;;;;;15.18;12.90;;;29.60;59.40;;;;;;4879461;29;20313;-80
2022/09/08 08:39:27;;;;;;;15.68;12.90;;;29.20;59.60;;;;;;4864033;29;20554;-82
2022/09/08 08:42:10;;;;;;;19.35;13.75;;;29.30;60.60;;;;;;4879730;29;20040;-82
2022/09/08 08:44:59;;;;;;;14.20;12.65;;;29.60;59.50;;;;;;4879788;29;20033;-83
2022/09/08 08:48:19;;;;;;;14.48;12.55;;;29.80;59.40;;;;;;4879246;29;20083;-82
2022/09/08 08:51:15;;;;;;;16.58;12.85;;;29.80;59.20;;;;;;4809189;29;20495;-79
2022/09/08 08:53:46;;;;;;;14.20;12.63;;;29.90;59.20;;;;;;4823896;29;20095;-84
2022/09/08 08:56:21;;;;;;;16.85;12.43;;;30.00;58.60;;;;;;4823983;29;20061;-83
2022/09/08 08:59:10;;;;;;;14.00;12.52;;;30.10;59.60;;;;;;4860756;29;20037;-77
2022/09/08 09:01:57;;;;;;;14.67;11.90;;;30.20;59.10;;;;;;4860716;29;20061;-83
2022/09/08 09:04:59;;;;;;;17.85;12.10;;;30.10;59.60;;;;;;4860471;29;20593;-80
2022/09/08 09:07:51;;;;;;;17.50;12.60;;;30.10;59.00;;;;;;4860772;29;20090;-84
2022/09/08 09:10:35;;;;;;;14.20;12.80;;;30.40;58.20;;;;;;4872035;29;20079;-81
2022/09/08 09:13:46;;;;;;;13.88;12.43;;;30.80;57.90;;;;;;4935731;29;20126;-79
2022/09/08 09:16:39;;;;;;;18.05;12.25;;;30.70;58.10;;;;;;4919981;29;20463;-80
2022/09/08 09:19:38;;;;;;;15.23;12.70;;;30.70;57.90;;;;;;4935984;29;20031;-84
2022/09/08 09:22:25;;;;;;;13.07;11.48;;;31.00;58.90;;;;;;5016600;28;20029;-86
2022/09/08 09:25:15;;;;;;;13.10;11.80;;;31.50;58.50;;;;;;5054706;28;20033;-85
2022/09/08 09:28:08;;;;;;;15.53;13.40;;;31.00;58.00;;;;;;5037094;28;20045;-81
2022/09/08 09:30:47;;;;;;;14.32;11.48;;;31.30;58.60;;;;;;5036237;28;20024;-81
2022/09/08 09:33:25;;;;;;;13.35;11.50;;;31.40;57.90;;;;;;5036641;28;20025;-88
2022/09/08 09:36:09;;;;;;;14.18;11.57;;;31.30;58.60;;;;;;5036523;28;20380;-82
2022/09/08 09:38:44;;;;;;;14.13;11.52;;;31.40;57.30;;;;;;5054525;28;20487;-78
2022/09/08 09:41:28;;;;;;;12.57;11.27;;;31.90;57.30;;;;;;5054714;28;20039;-82
2022/09/08 09:43:54;;;;;;;16.80;11.45;;;32.30;56.30;;;;;;5036600;28;20033;-84
2022/09/08 09:46:47;;;;;;;13.25;11.38;;;32.30;56.10;;;;;;5054206;28;20094;-84
2022/09/08 09:49:48;;;;;;;12.23;10.95;;;32.30;56.60;;;;;;5054079;28;20060;-82
2022/09/08 09:52:40;;;;;;;12.23;10.90;;;32.20;56.60;;;;;;5036229;28;20048;-84
2022/09/08 09:55:42;;;;;;;14.25;11.23;;;31.70;56.90;;;;;;5053689;28;20031;-83
2022/09/08 09:58:26;;;;;;;13.48;11.40;;;31.80;56.90;;;;;;5036216;28;20508;-80
2022/09/08 10:00:55;;;;;;;13.98;11.40;;;31.80;57.60;;;;;;4350936;28;10001310;-85
2022/09/08 10:03:37;;;;;;;15.45;11.68;;;32.20;57.10;;;;;;5052281;28;20025;-85
2022/09/08 10:06:23;;;;;;;14.23;12.23;;;32.00;55.90;;;;;;5036168;28;20028;-80
2022/09/08 10:09:10;;;;;;;13.13;11.80;;;31.80;56.80;;;;;;5034697;28;20047;-84
2022/09/08 10:12:08;;;;;;;12.02;10.70;;;31.90;57.50;;;;;;5035851;28;20021;-78
2022/09/08 10:15:03;;;;;;;13.70;11.18;;;32.20;55.60;;;;;;5036246;28;20028;-79
2022/09/08 10:17:43;;;;;;;12.90;11.57;;;32.00;56.20;;;;;;5053871;28;20025;-84
2022/09/08 10:20:28;;;;;;;14.15;11.18;;;31.70;56.80;;;;;;5035985;28;20112;-82
2022/09/08 10:22:59;;;;;;;16.25;11.90;;;32.30;57.00;;;;;;5053712;28;20491;-82
2022/09/08 10:25:39;;;;;;;12.30;11.02;;;32.80;55.10;;;;;;5035596;28;20037;-78
2022/09/08 10:28:19;;;;;;;13.43;11.57;;;33.10;55.40;;;;;;5035766;28;20025;-83
2022/09/08 10:30:57;;;;;;;;;;;32.80;55.50;;;;;;5035897;28;20017;-82
2022/09/08 10:33:38;;;;;;;14.50;11.50;;;32.80;56.80;;;;;;5035804;28;19905;-81
2022/09/08 10:36:11;;;;;;;15.25;11.27;;;33.30;55.60;;;;;;5053505;28;20476;-79
2022/09/08 10:39:05;;;;;;;13.82;11.13;;;33.60;54.60;;;;;;5035523;28;20495;-80
2022/09/08 10:41:49;;;;;;;18.70;12.27;;;33.60;54.50;;;;;;5035230;28;20036;-80
2022/09/08 10:44:39;;;;;;;13.55;10.63;;;33.60;55.30;;;;;;5053179;28;20460;-83
2022/09/08 10:47:23;;;;;;;13.15;11.30;;;33.50;55.80;;;;;;5053196;28;20120;-82
2022/09/08 10:50:10;;;;;;;13.82;11.40;;;33.60;55.70;;;;;;5035412;28;20112;-79
2022/09/08 10:52:49;;;;;;;13.70;10.90;;;33.50;55.20;;;;;;5035257;28;20049;-80
2022/09/08 10:55:40;;;;;;;14.32;11.32;;;33.40;54.70;;;;;;5035626;28;20476;-81
2022/09/08 10:58:24;;;;;;;;;;;33.60;55.80;;;;;;5035838;28;20029;-80
2022/09/08 11:01:20;;;;;;;12.88;10.85;;;34.10;54.40;;;;;;5052966;28;19940;-84
2022/09/08 11:03:57;;;;;;;15.55;11.27;;;34.10;54.50;;;;;;5034675;28;20033;-81
2022/09/08 11:06:35;;;;;;;16.15;10.75;;;33.50;55.00;;;;;;5035130;28;20078;-83
2022/09/08 11:09:55;;;;;;;15.50;11.43;;;33.40;56.00;;;;;;5053088;28;20095;-82
2022/09/08 11:12:42;;;;;;;13.27;11.07;;;33.40;55.70;;;;;;4992166;28;20541;-82
2022/09/08 11:15:44;;;;;;;13.13;11.32;;;33.70;55.10;;;;;;4991622;28;20042;-82
2022/09/08 11:18:29;;;;;;;15.93;10.98;;;33.40;55.20;;;;;;4991813;28;20037;-82
2022/09/08 11:21:01;;;;;;;15.05;9.90;;;33.50;55.60;;;;;;4991719;28;20377;-82
2022/09/08 11:23:52;;;;;;;11.98;9.80;;;33.40;54.80;;;;;;4991581;28;20037;-79
2022/09/08 11:26:56;;;;;;;14.73;9.60;;;33.30;54.90;;;;;;4975046;28;20039;-82
2022/09/08 11:29:31;;;;;;;13.93;9.48;;;33.20;55.40;;;;;;4985191;28;20046;-82
2022/09/08 11:32:12;;;;;;;10.18;8.90;;;33.40;54.00;;;;;;4991688;28;20081;-90
2022/09/08 11:34:56;;;;;;;9.82;8.63;;;33.10;54.00;;;;;;4991740;28;20497;-80
2022/09/08 11:37:33;;;;;;;11.00;8.60;;;32.90;53.60;;;;;;4991687;28;20137;-83
2022/09/08 11:40:20;;;;;;;12.40;9.07;;;32.70;54.50;;;;;;4991410;28;20062;-81
2022/09/08 11:43:10;;;;;;;14.50;8.98;;;32.70;55.40;;;;;;4975286;28;20065;-80
2022/09/08 11:45:48;;;;;;;14.85;9.43;;;33.10;54.80;;;;;;4986858;28;20107;-81
2022/09/08 11:48:29;;;;;;;16.08;9.55;;;33.30;54.40;;;;;;5034531;28;20110;-82
2022/09/08 11:51:00;;;;;;;11.50;8.32;;;33.40;54.40;;;;;;5034850;28;20036;-83
2022/09/08 11:53:54;;;;;;;10.52;8.20;;;33.10;53.90;;;;;;5034466;28;20400;-82
2022/09/08 11:56:38;;;;;;;10.32;9.05;;;33.40;54.80;;;;;;5052533;28;20036;-82
2022/09/08 11:59:33;;;;;;;12.45;7.72;;;33.90;53.70;;;;;;5052735;28;20036;-80
2022/09/08 12:02:22;;;;;;;9.95;6.80;;;34.10;53.50;;;;;;4971911;28;20151;-80
2022/09/08 12:05:21;;;;;;;9.48;6.72;;;33.60;53.30;;;;;;4971934;28;20035;-85
2022/09/08 12:08:19;;;;;;;9.30;6.97;;;33.10;52.90;;;;;;4955787;28;20050;-85
2022/09/08 12:11:05;;;;;;;12.70;6.68;;;32.50;54.00;;;;;;4971935;28;20043;-79
2022/09/08 12:13:34;;;;;;;7.53;6.00;;;32.50;54.00;;;;;;4918360;29;20040;-82
2022/09/08 12:16:23;;;;;;;7.90;6.20;;;32.90;53.70;;;;;;4936944;29;20483;-82
2022/09/08 12:19:19;;;;;;;10.60;6.00;;;33.30;55.00;;;;;;4920769;29;20392;-83
2022/09/08 12:22:12;;;;;;;8.95;6.07;;;33.60;54.00;;;;;;4936705;29;20035;-93
2022/09/08 12:24:53;;;;;;;9.70;5.78;;;33.80;53.40;;;;;;4936866;29;20043;-81
2022/09/08 12:27:24;;;;;;;7.70;5.07;;;34.00;53.30;;;;;;4936643;29;20048;-85
2022/09/08 12:30:17;;;;;;;9.13;5.20;;;33.50;52.70;;;;;;5070866;28;20874;-84
2022/09/08 12:32:43;;;;;;;11.18;5.68;;;33.30;53.90;;;;;;5069284;28;20451;-83
2022/09/08 12:35:22;;;;;;;9.05;5.90;;;33.40;53.40;;;;;;5070579;28;20025;-82
2022/09/08 12:38:10;;;;;;;9.10;5.53;;;33.60;53.40;;;;;;5070368;28;20021;-84
2022/09/08 12:40:39;;;;;;;12.48;5.60;;;33.90;53.00;;;;;;5069645;28;20021;-82
2022/09/08 12:43:18;;;;;;;9.07;5.15;;;34.10;53.10;;;;;;5070271;28;20064;-85
2022/09/08 12:45:52;;;;;;;7.93;5.13;;;34.40;53.30;;;;;;5069167;28;20037;-88
2022/09/08 12:48:46;;;;;;;9.90;4.38;;;34.40;53.30;;;;;;5069147;28;20108;-80
2022/09/08 12:51:33;;;;;;;9.63;4.82;;;33.80;52.60;;;;;;5070349;28;20078;-83
2022/09/08 12:53:58;;;;;;;10.32;4.47;;;33.90;53.10;;;;;;5069138;28;20450;-82
2022/09/08 12:56:34;;;;;;;9.02;4.88;;;33.50;52.80;;;;;;5070081;28;20104;-84
2022/09/08 12:59:21;;;;;;;8.15;5.22;;;33.60;54.00;;;;;;5068958;28;20074;-85
2022/09/08 13:02:13;;;;;;;10.63;4.35;;;34.10;53.10;;;;;;5069910;28;20021;-87
2022/09/08 13:05:02;;;;;;;9.27;4.50;;;34.10;53.50;;;;;;5069949;28;20028;-89
2022/09/08 13:07:40;;;;;;;9.57;4.10;;;33.60;52.40;;;;;;5068772;28;20028;-88
2022/09/08 13:10:09;;;;;;;10.88;4.30;;;33.20;52.80;;;;;;5068662;28;20515;-80
2022/09/08 13:13:04;;;;;;;11.85;4.55;;;33.30;53.40;;;;;;5069534;28;20047;-82
2022/09/08 13:15:35;;;;;;;7.60;4.53;;;33.70;53.60;;;;;;5068627;28;20037;-84
2022/09/08 13:18:03;;;;;;;10.18;3.90;;;34.10;53.40;;;;;;5069725;28;20119;-85
2022/09/08 13:20:39;;;;;;;7.05;3.40;;;34.40;53.30;;;;;;5068539;28;20021;-80